sensor_id;sensor_type;location;lat;lon;timestamp;pressure;altitude;pressure_sealevel;temperature;humidity
50394;BME280;36308;46.312;25.288;2022-08-02T00:01:04;95977.72;;;18.91;72.13
50394;BME280;36308;46.312;25.288;2022-08-02T00:03:33;95979.47;;;18.87;72.21
50394;BME280;36308;46.312;25.288;2022-08-02T00:06:43;95986.19;;;18.90;72.16
50394;BME280;36308;46.312;25.288;2022-08-02T00:09:33;95974.97;;;18.83;72.15
50394;BME280;36308;46.312;25.288;2022-08-02T00:12:23;95964.50;;;18.76;72.10
50394;BME280;36308;46.312;25.288;2022-08-02T00:15:04;95973.53;;;18.85;72.09
50394;BME280;36308;46.312;25.288;2022-08-02T00:17:53;95982.19;;;18.87;72.24
50394;BME280;36308;46.312;25.288;2022-08-02T00:20:33;95969.94;;;18.76;72.49
50394;BME280;36308;46.312;25.288;2022-08-02T00:23:23;95977.50;;;18.79;72.64
50394;BME280;36308;46.312;25.288;2022-08-02T00:26:13;95985.03;;;18.82;72.81
50394;BME280;36308;46.312;25.288;2022-08-02T00:28:43;95976.84;;;18.82;72.64
50394;BME280;36308;46.312;25.288;2022-08-02T00:31:13;95974.78;;;18.79;72.88
50394;BME280;36308;46.312;25.288;2022-08-02T00:33:53;95980.22;;;18.79;73.03
50394;BME280;36308;46.312;25.288;2022-08-02T00:39:13;95972.53;;;18.81;73.03
50394;BME280;36308;46.312;25.288;2022-08-02T00:42:03;95976.41;;;18.80;73.22
50394;BME280;36308;46.312;25.288;2022-08-02T00:44:43;95975.56;;;18.80;72.92
50394;BME280;36308;46.312;25.288;2022-08-02T00:47:33;95974.25;;;18.77;73.01
50394;BME280;36308;46.312;25.288;2022-08-02T00:50:03;95973.97;;;18.78;73.16
50394;BME280;36308;46.312;25.288;2022-08-02T00:53:03;95974.25;;;18.77;73.16
50394;BME280;36308;46.312;25.288;2022-08-02T00:55:34;95975.56;;;18.80;72.95
50394;BME280;36308;46.312;25.288;2022-08-02T00:58:13;95977.78;;;18.77;73.11
50394;BME280;36308;46.312;25.288;2022-08-02T01:00:43;95974.78;;;18.79;72.55
50394;BME280;36308;46.312;25.288;2022-08-02T01:03:13;95971.53;;;18.77;72.56
50394;BME280;36308;46.312;25.288;2022-08-02T01:06:03;95965.72;;;18.70;72.66
50394;BME280;36308;46.312;25.288;2022-08-02T01:08:42;95968.31;;;18.75;72.54
50394;BME280;36308;46.312;25.288;2022-08-02T01:11:13;95981.13;;;18.74;72.69
50394;BME280;36308;46.312;25.288;2022-08-02T01:14:13;95973.75;;;18.75;72.73
50394;BME280;36308;46.312;25.288;2022-08-02T01:26:26;95976.97;;;18.77;72.92
50394;BME280;36308;46.312;25.288;2022-08-02T01:29:42;95973.97;;;18.78;73.17
50394;BME280;36308;46.312;25.288;2022-08-02T01:33:02;95979.59;;;18.82;73.26
50394;BME280;36308;46.312;25.288;2022-08-02T01:35:53;95946.19;;;18.68;73.25
50394;BME280;36308;46.312;25.288;2022-08-02T01:39:14;95952.59;;;18.72;73.25
50394;BME280;36308;46.312;25.288;2022-08-02T01:42:02;95958.22;;;18.75;73.47
50394;BME280;36308;46.312;25.288;2022-08-02T01:45:03;95929.66;;;18.64;73.11
50394;BME280;36308;46.312;25.288;2022-08-02T01:47:52;95976.09;;;18.90;72.91
50394;BME280;36308;46.312;25.288;2022-08-02T01:50:52;95973.38;;;18.90;72.87
50394;BME280;36308;46.312;25.288;2022-08-02T01:56:32;95973.38;;;18.90;72.68
50394;BME280;36308;46.312;25.288;2022-08-02T01:59:13;95973.38;;;18.90;72.58
50394;BME280;36308;46.312;25.288;2022-08-02T02:02:13;95952.47;;;18.77;72.00
50394;BME280;36308;46.312;25.288;2022-08-02T02:05:23;95969.38;;;18.88;71.98
50394;BME280;36308;46.312;25.288;2022-08-02T02:08:12;95969.06;;;18.89;71.99
50394;BME280;36308;46.312;25.288;2022-08-02T02:10:53;95970.16;;;18.88;72.12
50394;BME280;36308;46.312;25.288;2022-08-02T02:13:23;95959.41;;;18.83;71.93
50394;BME280;36308;46.312;25.288;2022-08-02T02:16:03;95964.72;;;18.88;71.94
50394;BME280;36308;46.312;25.288;2022-08-02T02:18:52;95965.84;;;18.87;71.66
50394;BME280;36308;46.312;25.288;2022-08-02T02:21:32;95957.19;;;18.85;71.59
50394;BME280;36308;46.312;25.288;2022-08-02T02:24:12;95960.69;;;18.86;71.63
50394;BME280;36308;46.312;25.288;2022-08-02T02:26:53;95952.84;;;18.84;71.47
50394;BME280;36308;46.312;25.288;2022-08-02T02:29:42;95937.06;;;18.72;71.58
50394;BME280;36308;46.312;25.288;2022-08-02T02:35:33;95946.03;;;18.73;71.70
50394;BME280;36308;46.312;25.288;2022-08-02T02:38:22;95962.44;;;18.82;71.59
50394;BME280;36308;46.312;25.288;2022-08-02T02:41:12;95966.28;;;18.81;71.61
50394;BME280;36308;46.312;25.288;2022-08-02T02:43:52;95973.97;;;18.78;71.53
50394;BME280;36308;46.312;25.288;2022-08-02T02:46:42;95971.19;;;18.70;71.75
50394;BME280;36308;46.312;25.288;2022-08-02T02:49:22;95969.75;;;18.72;71.77
50394;BME280;36308;46.312;25.288;2022-08-02T02:53:02;95965.72;;;18.70;71.84
50394;BME280;36308;46.312;25.288;2022-08-02T02:55:53;95968.56;;;18.65;71.94
50394;BME280;36308;46.312;25.288;2022-08-02T02:58:33;95976.72;;;18.65;71.67
50394;BME280;36308;46.312;25.288;2022-08-02T03:01:13;95968.38;;;18.61;72.15
50394;BME280;36308;46.312;25.288;2022-08-02T03:04:13;95981.69;;;18.63;72.15
50394;BME280;36308;46.312;25.288;2022-08-02T03:07:33;95976.38;;;18.57;72.04
50394;BME280;36308;46.312;25.288;2022-08-02T03:12:52;95977.13;;;18.49;72.20
50394;BME280;36308;46.312;25.288;2022-08-02T03:15:52;95975.00;;;18.46;72.23
50394;BME280;36308;46.312;25.288;2022-08-02T03:19:02;95974.00;;;18.42;72.42
50394;BME280;36308;46.312;25.288;2022-08-02T03:21:32;95962.88;;;18.30;72.61
50394;BME280;36308;46.312;25.288;2022-08-02T03:24:02;95982.19;;;18.42;72.66
50394;BME280;36308;46.312;25.288;2022-08-02T03:26:42;95987.63;;;18.42;72.84
50394;BME280;36308;46.312;25.288;2022-08-02T03:29:32;95969.16;;;18.30;73.00
50394;BME280;36308;46.312;25.288;2022-08-02T03:35:22;95995.00;;;18.42;73.16
50394;BME280;36308;46.312;25.288;2022-08-02T03:38:12;95980.81;;;18.31;73.33
50394;BME280;36308;46.312;25.288;2022-08-02T03:41:02;95997.41;;;18.43;73.22
50394;BME280;36308;46.312;25.288;2022-08-02T03:43:32;95995.28;;;18.40;73.13
50394;BME280;36308;46.312;25.288;2022-08-02T03:46:32;95995.94;;;18.37;73.31
50394;BME280;36308;46.312;25.288;2022-08-02T03:52:03;96009.28;;;18.47;73.16
50394;BME280;36308;46.312;25.288;2022-08-02T03:54:52;96012.63;;;18.44;73.26
50394;BME280;36308;46.312;25.288;2022-08-02T03:57:22;96009.91;;;18.44;73.14
50394;BME280;36308;46.312;25.288;2022-08-02T04:00:22;96011.03;;;18.43;73.25
50394;BME280;36308;46.312;25.288;2022-08-02T04:03:02;96012.13;;;18.42;73.12
50394;BME280;36308;46.312;25.288;2022-08-02T04:06:22;96014.97;;;18.37;73.33
50394;BME280;36308;46.312;25.288;2022-08-02T04:09:02;96007.81;;;18.41;73.42
50394;BME280;36308;46.312;25.288;2022-08-02T04:11:52;96006.19;;;18.40;73.43
50394;BME280;36308;46.312;25.288;2022-08-02T04:14:32;96006.19;;;18.40;73.46
50394;BME280;36308;46.312;25.288;2022-08-02T04:17:12;96012.91;;;18.43;73.67
50394;BME280;36308;46.312;25.288;2022-08-02T04:20:03;96008.81;;;18.45;73.79
50394;BME280;36308;46.312;25.288;2022-08-02T04:23:04;96012.00;;;18.47;73.68
50394;BME280;36308;46.312;25.288;2022-08-02T04:25:43;96002.66;;;18.40;73.62
50394;BME280;36308;46.312;25.288;2022-08-02T04:28:32;96000.44;;;18.42;73.34
50394;BME280;36308;46.312;25.288;2022-08-02T04:31:14;96000.13;;;18.43;73.35
50394;BME280;36308;46.312;25.288;2022-08-02T04:34:02;96020.53;;;18.54;73.47
50394;BME280;36308;46.312;25.288;2022-08-02T04:36:42;96027.47;;;18.61;73.42
50394;BME280;36308;46.312;25.288;2022-08-02T04:39:12;96035.03;;;18.64;73.45
50394;BME280;36308;46.312;25.288;2022-08-02T04:41:43;96034.91;;;18.69;73.20
50394;BME280;36308;46.312;25.288;2022-08-02T04:44:32;96034.91;;;18.69;73.20
50394;BME280;36308;46.312;25.288;2022-08-02T04:47:12;96032.56;;;18.76;72.86
50394;BME280;36308;46.312;25.288;2022-08-02T04:49:42;96028.22;;;18.75;72.72
50394;BME280;36308;46.312;25.288;2022-08-02T04:52:12;96032.47;;;18.81;72.92
50394;BME280;36308;46.312;25.288;2022-08-02T04:54:42;96027.00;;;18.81;72.68
50394;BME280;36308;46.312;25.288;2022-08-02T04:57:22;96040.50;;;18.86;72.80
50394;BME280;36308;46.312;25.288;2022-08-02T05:00:22;96036.66;;;18.87;72.42
50394;BME280;36308;46.312;25.288;2022-08-02T05:02:54;96040.88;;;18.93;72.71
50394;BME280;36308;46.312;25.288;2022-08-02T05:05:33;96025.78;;;18.87;72.50
50394;BME280;36308;46.312;25.288;2022-08-02T05:08:12;96048.91;;;18.98;72.67
50394;BME280;36308;46.312;25.288;2022-08-02T05:10:52;96050.53;;;19.00;72.58
50394;BME280;36308;46.312;25.288;2022-08-02T05:13:22;96051.53;;;19.04;72.41
50394;BME280;36308;46.312;25.288;2022-08-02T05:15:52;96050.88;;;19.07;72.44
50394;BME280;36308;46.312;25.288;2022-08-02T05:18:22;96051.81;;;19.02;72.43
50394;BME280;36308;46.312;25.288;2022-08-02T05:20:52;96055.09;;;19.13;72.37
50394;BME280;36308;46.312;25.288;2022-08-02T05:23:41;96055.56;;;19.15;72.27
50394;BME280;36308;46.312;25.288;2022-08-02T05:26:22;96060.91;;;19.20;72.07
50394;BME280;36308;46.312;25.288;2022-08-02T05:29:02;96053.72;;;19.24;71.92
50394;BME280;36308;46.312;25.288;2022-08-02T05:31:42;96051.97;;;19.28;72.25
50394;BME280;36308;46.312;25.288;2022-08-02T05:34:12;96053.44;;;19.34;71.91
50394;BME280;36308;46.312;25.288;2022-08-02T05:37:12;96070.47;;;19.40;71.41
50394;BME280;36308;46.312;25.288;2022-08-02T05:39:42;96059.75;;;19.44;71.28
50394;BME280;36308;46.312;25.288;2022-08-02T05:42:22;96065.06;;;19.49;71.11
50394;BME280;36308;46.312;25.288;2022-08-02T05:44:52;96061.88;;;19.55;70.40
50394;BME280;36308;46.312;25.288;2022-08-02T05:47:32;96069.13;;;19.60;70.00
50394;BME280;36308;46.312;25.288;2022-08-02T05:50:12;96073.00;;;19.68;69.74
50394;BME280;36308;46.312;25.288;2022-08-02T05:56:32;96070.66;;;19.84;68.34
50394;BME280;36308;46.312;25.288;2022-08-02T05:59:03;96080.19;;;19.95;68.21
50394;BME280;36308;46.312;25.288;2022-08-02T06:02:03;96079.41;;;20.03;68.17
50394;BME280;36308;46.312;25.288;2022-08-02T06:05:22;96079.91;;;20.14;67.83
50394;BME280;36308;46.312;25.288;2022-08-02T06:08:02;96077.84;;;20.19;67.38
50394;BME280;36308;46.312;25.288;2022-08-02T06:10:32;96081.53;;;20.24;66.96
50394;BME280;36308;46.312;25.288;2022-08-02T06:13:21;96076.88;;;20.33;66.83
50394;BME280;36308;46.312;25.288;2022-08-02T06:15:52;96077.53;;;20.38;66.56
50394;BME280;36308;46.312;25.288;2022-08-02T06:18:42;96081.91;;;20.48;66.47
50394;BME280;36308;46.312;25.288;2022-08-02T06:21:12;96080.63;;;20.54;66.48
50394;BME280;36308;46.312;25.288;2022-08-02T06:24:02;96072.78;;;20.62;65.99
50394;BME280;36308;46.312;25.288;2022-08-02T06:26:52;96085.31;;;20.71;65.91
50394;BME280;36308;46.312;25.288;2022-08-02T06:29:32;96075.84;;;20.77;65.62
50394;BME280;36308;46.312;25.288;2022-08-02T06:32:31;96070.69;;;20.76;65.44
50394;BME280;36308;46.312;25.288;2022-08-02T06:35:31;96076.44;;;20.83;65.50
50394;BME280;36308;46.312;25.288;2022-08-02T06:38:51;96075.16;;;20.89;64.77
50394;BME280;36308;46.312;25.288;2022-08-02T06:41:51;96085.75;;;20.99;64.85
50394;BME280;36308;46.312;25.288;2022-08-02T06:44:42;96081.75;;;21.06;64.84
50394;BME280;36308;46.312;25.288;2022-08-02T06:47:12;96090.41;;;21.16;64.75
50394;BME280;36308;46.312;25.288;2022-08-02T06:49:51;96088.63;;;21.20;64.69
50394;BME280;36308;46.312;25.288;2022-08-02T06:52:31;96091.69;;;21.28;64.82
50394;BME280;36308;46.312;25.288;2022-08-02T06:55:31;96095.84;;;21.34;64.42
50394;BME280;36308;46.312;25.288;2022-08-02T06:58:12;96086.66;;;21.38;64.13
50394;BME280;36308;46.312;25.288;2022-08-02T07:00:52;96094.75;;;21.44;63.98
50394;BME280;36308;46.312;25.288;2022-08-02T07:03:22;96097.28;;;21.49;63.76
50394;BME280;36308;46.312;25.288;2022-08-02T07:05:52;96091.16;;;21.52;63.64
50394;BME280;36308;46.312;25.288;2022-08-02T07:08:21;96098.25;;;21.53;63.37
50394;BME280;36308;46.312;25.288;2022-08-02T07:10:51;96095.31;;;21.58;63.25
50394;BME280;36308;46.312;25.288;2022-08-02T07:13:21;96089.03;;;21.57;63.26
50394;BME280;36308;46.312;25.288;2022-08-02T07:15:52;96091.75;;;21.66;63.03
50394;BME280;36308;46.312;25.288;2022-08-02T07:18:31;96098.16;;;21.70;63.04
50394;BME280;36308;46.312;25.288;2022-08-02T07:21:11;96087.53;;;21.77;62.92
50394;BME280;36308;46.312;25.288;2022-08-02T07:23:41;96090.06;;;21.83;63.01
50394;BME280;36308;46.312;25.288;2022-08-02T07:26:11;96086.50;;;21.91;62.57
50394;BME280;36308;46.312;25.288;2022-08-02T07:29:01;96085.19;;;21.97;62.23
50394;BME280;36308;46.312;25.288;2022-08-02T07:31:41;96083.84;;;22.03;62.13
50394;BME280;36308;46.312;25.288;2022-08-02T07:34:11;96085.75;;;22.11;61.54
50394;BME280;36308;46.312;25.288;2022-08-02T07:36:41;96092.84;;;22.12;61.41
50394;BME280;36308;46.312;25.288;2022-08-02T07:39:21;96090.56;;;22.14;61.39
50394;BME280;36308;46.312;25.288;2022-08-02T07:42:01;96097.00;;;22.18;61.33
50394;BME280;36308;46.312;25.288;2022-08-02T07:44:41;96093.91;;;22.20;61.22
50394;BME280;36308;46.312;25.288;2022-08-02T07:47:11;96094.72;;;22.20;60.85
50394;BME280;36308;46.312;25.288;2022-08-02T07:50:01;96092.00;;;22.20;60.56
50394;BME280;36308;46.312;25.288;2022-08-02T07:52:31;96101.19;;;22.25;60.71
50394;BME280;36308;46.312;25.288;2022-08-02T07:55:02;96095.50;;;22.30;60.77
50394;BME280;36308;46.312;25.288;2022-08-02T07:57:51;96096.13;;;22.35;60.65
50394;BME280;36308;46.312;25.288;2022-08-02T08:00:31;96104.91;;;22.41;60.55
50394;BME280;36308;46.312;25.288;2022-08-02T08:03:12;96099.34;;;22.37;60.56
50394;BME280;36308;46.312;25.288;2022-08-02T08:05:41;96104.66;;;22.34;60.79
50394;BME280;36308;46.312;25.288;2022-08-02T08:08:11;96108.19;;;22.34;60.99
50394;BME280;36308;46.312;25.288;2022-08-02T08:10:41;96114.47;;;22.35;60.92
50394;BME280;36308;46.312;25.288;2022-08-02T08:13:11;96114.94;;;22.37;61.05
50394;BME280;36308;46.312;25.288;2022-08-02T08:15:41;96114.28;;;22.40;60.88
50394;BME280;36308;46.312;25.288;2022-08-02T08:18:11;96120.72;;;22.44;60.57
50394;BME280;36308;46.312;25.288;2022-08-02T08:20:41;96120.84;;;22.48;60.17
50394;BME280;36308;46.312;25.288;2022-08-02T08:23:11;96118.59;;;22.50;59.74
50394;BME280;36308;46.312;25.288;2022-08-02T08:25:41;96122.13;;;22.50;59.72
50394;BME280;36308;46.312;25.288;2022-08-02T08:28:11;96112.75;;;22.51;59.63
50394;BME280;36308;46.312;25.288;2022-08-02T08:33:51;96103.03;;;22.63;59.74
50394;BME280;36308;46.312;25.288;2022-08-02T08:36:31;96112.97;;;22.67;59.38
50394;BME280;36308;46.312;25.288;2022-08-02T08:39:11;96110.84;;;22.73;59.34
50394;BME280;36308;46.312;25.288;2022-08-02T08:41:42;96105.63;;;22.80;59.35
50394;BME280;36308;46.312;25.288;2022-08-02T08:45:01;96116.19;;;22.90;59.20
50394;BME280;36308;46.312;25.288;2022-08-02T08:47:41;96104.81;;;23.00;59.27
50394;BME280;36308;46.312;25.288;2022-08-02T08:50:32;96114.28;;;23.12;58.66
50394;BME280;36308;46.312;25.288;2022-08-02T08:53:41;96115.78;;;23.22;58.22
50394;BME280;36308;46.312;25.288;2022-08-02T08:56:21;96112.94;;;23.30;57.97
50394;BME280;36308;46.312;25.288;2022-08-02T09:02:11;96096.97;;;23.45;57.21
50394;BME280;36308;46.312;25.288;2022-08-02T09:04:41;96111.00;;;23.64;57.61
50394;BME280;36308;46.312;25.288;2022-08-02T09:07:21;96104.84;;;23.79;57.03
50394;BME280;36308;46.312;25.288;2022-08-02T09:09:51;96128.34;;;23.89;55.70
50394;BME280;36308;46.312;25.288;2022-08-02T09:12:21;96111.97;;;23.93;55.54
50394;BME280;36308;46.312;25.288;2022-08-02T09:14:51;96118.84;;;23.99;55.44
50394;BME280;36308;46.312;25.288;2022-08-02T09:17:21;96099.84;;;24.06;55.26
50394;BME280;36308;46.312;25.288;2022-08-02T09:20:21;96114.25;;;24.15;55.11
50394;BME280;36308;46.312;25.288;2022-08-02T09:23:11;96116.31;;;24.31;55.35
50394;BME280;36308;46.312;25.288;2022-08-02T09:25:41;96119.06;;;24.43;55.41
50394;BME280;36308;46.312;25.288;2022-08-02T09:28:41;96117.94;;;24.56;55.26
50394;BME280;36308;46.312;25.288;2022-08-02T09:31:31;96125.81;;;24.70;54.65
50394;BME280;36308;46.312;25.288;2022-08-02T09:34:42;96122.69;;;24.84;54.39
50394;BME280;36308;46.312;25.288;2022-08-02T09:37:31;96123.00;;;24.95;53.96
50394;BME280;36308;46.312;25.288;2022-08-02T09:40:11;96121.50;;;24.97;53.10
50394;BME280;36308;46.312;25.288;2022-08-02T09:43:01;96117.25;;;25.00;53.62
50394;BME280;36308;46.312;25.288;2022-08-02T09:45:51;96124.22;;;25.10;53.33
50394;BME280;36308;46.312;25.288;2022-08-02T09:48:31;96131.06;;;25.16;52.98
50394;BME280;36308;46.312;25.288;2022-08-02T09:51:11;96127.06;;;25.26;52.71
50394;BME280;36308;46.312;25.288;2022-08-02T09:54:22;96131.06;;;25.28;52.20
50394;BME280;36308;46.312;25.288;2022-08-02T09:57:01;96130.78;;;25.33;52.32
50394;BME280;36308;46.312;25.288;2022-08-02T09:59:31;96139.50;;;25.35;52.23
50394;BME280;36308;46.312;25.288;2022-08-02T10:02:11;96137.19;;;25.37;51.93
50394;BME280;36308;46.312;25.288;2022-08-02T10:05:11;96142.00;;;25.40;52.12
50394;BME280;36308;46.312;25.288;2022-08-02T10:07:51;96141.28;;;25.44;52.09
50394;BME280;36308;46.312;25.288;2022-08-02T10:10:21;96139.44;;;25.48;51.84
50394;BME280;36308;46.312;25.288;2022-08-02T10:12:51;96134.38;;;25.50;51.92
50394;BME280;36308;46.312;25.288;2022-08-02T10:15:21;96123.81;;;25.52;51.81
50394;BME280;36308;46.312;25.288;2022-08-02T10:18:01;96133.53;;;25.61;52.33
50394;BME280;36308;46.312;25.288;2022-08-02T10:20:51;96134.53;;;25.69;51.91
50394;BME280;36308;46.312;25.288;2022-08-02T10:23:41;96129.19;;;25.76;51.76
50394;BME280;36308;46.312;25.288;2022-08-02T10:26:21;96130.09;;;25.80;51.38
50394;BME280;36308;46.312;25.288;2022-08-02T10:29:01;96124.69;;;25.84;51.33
50394;BME280;36308;46.312;25.288;2022-08-02T10:34:53;96125.75;;;25.95;50.84
50394;BME280;36308;46.312;25.288;2022-08-02T10:38:01;96131.38;;;25.99;50.81
50394;BME280;36308;46.312;25.288;2022-08-02T10:43:42;96130.84;;;26.09;50.45
50394;BME280;36308;46.312;25.288;2022-08-02T10:49:21;96126.56;;;26.28;50.37
50394;BME280;36308;46.312;25.288;2022-08-02T10:57:41;96116.91;;;26.53;48.82
50394;BME280;36308;46.312;25.288;2022-08-02T11:06:20;96108.78;;;26.76;48.62
50394;BME280;36308;46.312;25.288;2022-08-02T11:09:30;96119.31;;;26.90;48.10
50394;BME280;36308;46.312;25.288;2022-08-02T11:12:20;96118.03;;;27.04;47.54
50394;BME280;36308;46.312;25.288;2022-08-02T11:15:21;96126.91;;;27.13;47.02
50394;BME280;36308;46.312;25.288;2022-08-02T11:18:11;96123.41;;;27.16;46.40
50394;BME280;36308;46.312;25.288;2022-08-02T11:20:41;96122.16;;;27.13;46.14
50394;BME280;36308;46.312;25.288;2022-08-02T11:23:40;96123.69;;;27.11;45.99
50394;BME280;36308;46.312;25.288;2022-08-02T11:29:20;96132.25;;;27.06;46.23
50394;BME280;36308;46.312;25.288;2022-08-02T11:31:50;96121.16;;;27.02;46.08
50394;BME280;36308;46.312;25.288;2022-08-02T11:34:30;96119.19;;;27.02;46.73
50394;BME280;36308;46.312;25.288;2022-08-02T11:37:11;96119.31;;;27.10;47.06
50394;BME280;36308;46.312;25.288;2022-08-02T11:39:50;96109.59;;;27.16;46.87
50394;BME280;36308;46.312;25.288;2022-08-02T11:42:41;96112.97;;;27.25;46.46
50394;BME280;36308;46.312;25.288;2022-08-02T11:45:31;96105.25;;;27.34;46.71
